Time;durP1;ratioP1;P1;durP2;ratioP2;P2;SDS_P1;SDS_P2;PMS_P1;PMS_P2;Temp;Humidity;BMP_temperature;BMP_pressure;BME280_temperature;BME280_humidity;BME280_pressure;Samples;Min_cycle;Max_cycle;Signal;HPM_P1;HPM_P2
2022/09/12 00:01:25;;;;;;;22.00;13.83;;;12.40;99.90;;;;;;5051970;28;20204;-78
2022/09/12 00:03:53;;;;;;;22.93;13.50;;;12.30;99.90;;;;;;5053076;28;20248;-78
2022/09/12 00:06:25;;;;;;;24.43;14.77;;;12.30;99.90;;;;;;5053917;28;20183;-78
2022/09/12 00:08:54;;;;;;;22.57;15.13;;;12.30;99.90;;;;;;5054734;28;20168;-78
2022/09/12 00:11:20;;;;;;;27.10;15.03;;;12.30;99.90;;;;;;5052070;28;20207;-78
2022/09/12 00:13:46;;;;;;;26.40;15.43;;;12.30;99.90;;;;;;5057554;28;20179;-77
2022/09/12 00:16:20;;;;;;;24.27;15.17;;;12.30;99.90;;;;;;5062738;28;20202;-77
2022/09/12 00:18:46;;;;;;;24.93;14.73;;;12.20;99.90;;;;;;5053376;28;20167;-77
2022/09/12 00:21:13;;;;;;;26.63;15.10;;;12.20;99.90;;;;;;5052517;28;20622;-78
2022/09/12 00:23:38;;;;;;;21.20;13.97;;;12.20;99.90;;;;;;5051865;28;20199;-78
2022/09/12 00:26:06;;;;;;;20.00;13.13;;;12.20;99.90;;;;;;5055108;28;20179;-77
2022/09/12 00:28:35;;;;;;;21.10;12.60;;;12.20;99.90;;;;;;5056182;28;20198;-77
2022/09/12 00:31:05;;;;;;;20.67;13.27;;;12.20;99.90;;;;;;5056313;28;20211;-78
2022/09/12 00:33:31;;;;;;;24.20;14.57;;;12.20;99.90;;;;;;5056683;28;20236;-77
2022/09/12 00:35:56;;;;;;;20.00;13.07;;;12.10;99.90;;;;;;5056027;28;20191;-78
2022/09/12 00:38:22;;;;;;;24.40;15.03;;;12.10;99.90;;;;;;5057626;28;20228;-78
2022/09/12 00:40:48;;;;;;;20.23;13.60;;;12.10;99.90;;;;;;5056107;28;20268;-78
2022/09/12 00:43:35;;;;;;;18.37;13.13;;;12.10;99.90;;;;;;5057463;28;20171;-77
2022/09/12 00:46:38;;;;;;;21.60;12.73;;;12.10;99.90;;;;;;5055592;28;20175;-78
2022/09/12 00:49:26;;;;;;;18.17;11.77;;;12.00;99.90;;;;;;5055765;28;20195;-77
2022/09/12 00:52:02;;;;;;;19.50;13.10;;;12.00;99.90;;;;;;5054311;28;20184;-77
2022/09/12 00:54:31;;;;;;;21.17;12.07;;;11.90;99.90;;;;;;5036701;28;20184;-77
2022/09/12 00:57:01;;;;;;;19.80;12.10;;;11.90;99.90;;;;;;5036964;28;20334;-77
2022/09/12 00:59:34;;;;;;;17.97;12.03;;;11.90;99.90;;;;;;5035719;28;20168;-78
2022/09/12 01:01:59;;;;;;;19.10;12.23;;;11.90;99.90;;;;;;5053612;28;20203;-78
2022/09/12 01:04:26;;;;;;;21.57;12.53;;;11.90;99.90;;;;;;5055404;28;20641;-78
2022/09/12 01:06:54;;;;;;;23.50;13.30;;;11.80;99.90;;;;;;5056601;28;20183;-78
2022/09/12 01:09:22;;;;;;;21.30;12.90;;;11.80;99.90;;;;;;5055391;28;20180;-78
2022/09/12 01:11:49;;;;;;;22.47;13.93;;;11.80;99.90;;;;;;5054685;28;20537;-77
2022/09/12 01:14:16;;;;;;;25.97;15.00;;;11.80;99.90;;;;;;5056537;28;20176;-78
2022/09/12 01:16:44;;;;;;;22.87;14.40;;;11.80;99.90;;;;;;5056353;28;20191;-78
2022/09/12 01:19:31;;;;;;;23.20;13.80;;;11.80;99.90;;;;;;5056471;28;20160;-78
2022/09/12 01:22:30;;;;;;;20.93;13.10;;;11.80;99.90;;;;;;5055313;28;20183;-78
2022/09/12 01:25:23;;;;;;;18.83;12.33;;;11.80;99.90;;;;;;5056445;28;20163;-77
2022/09/12 01:28:32;;;;;;;21.73;14.00;;;11.80;99.90;;;;;;5056412;28;20251;-78
2022/09/12 01:31:20;;;;;;;25.17;14.97;;;11.80;99.90;;;;;;5054212;28;20297;-78
2022/09/12 01:34:03;;;;;;;23.87;14.43;;;11.70;99.90;;;;;;5055892;28;20266;-77
2022/09/12 01:36:40;;;;;;;22.23;13.43;;;11.70;99.90;;;;;;5055017;28;20680;-77
2022/09/12 01:39:38;;;;;;;21.70;13.73;;;11.70;99.90;;;;;;5054407;28;20625;-78
2022/09/12 01:42:21;;;;;;;21.83;13.97;;;11.70;99.90;;;;;;5056703;28;20656;-78
2022/09/12 01:44:57;;;;;;;22.30;14.07;;;11.60;99.90;;;;;;5056444;28;20160;-78
2022/09/12 01:47:32;;;;;;;26.30;13.20;;;11.60;99.90;;;;;;5056253;28;20152;-78
2022/09/12 01:50:15;;;;;;;19.80;13.23;;;11.50;99.90;;;;;;5055027;28;20206;-78
2022/09/12 01:52:59;;;;;;;21.63;13.93;;;11.50;99.90;;;;;;5056442;28;20196;-77
2022/09/12 01:55:41;;;;;;;20.20;13.40;;;11.50;99.90;;;;;;5056205;28;20215;-78
2022/09/12 01:58:16;;;;;;;21.73;13.60;;;11.50;99.90;;;;;;5055925;28;20642;-78
2022/09/12 02:01:03;;;;;;;23.10;13.20;;;11.40;99.90;;;;;;5053862;28;20195;-77
2022/09/12 02:03:46;;;;;;;21.43;13.33;;;11.40;99.90;;;;;;5055934;28;20646;-77
2022/09/12 02:06:22;;;;;;;22.30;12.43;;;11.40;99.90;;;;;;5053967;28;20198;-78
2022/09/12 02:08:51;;;;;;;25.97;13.60;;;11.40;99.90;;;;;;5054556;28;20167;-78
2022/09/12 02:11:18;;;;;;;22.43;14.07;;;11.30;99.90;;;;;;5054878;28;20275;-78
2022/09/12 02:13:52;;;;;;;24.07;14.37;;;11.30;99.90;;;;;;5056035;28;20180;-77
2022/09/12 02:16:27;;;;;;;21.97;13.27;;;11.30;99.90;;;;;;5055273;28;20184;-78
2022/09/12 02:18:59;;;;;;;21.87;13.27;;;11.30;99.90;;;;;;5055450;28;20217;-78
2022/09/12 02:21:27;;;;;;;25.57;13.83;;;11.20;99.90;;;;;;5054809;28;20204;-78
2022/09/12 02:23:58;;;;;;;24.20;13.23;;;11.20;99.90;;;;;;5056406;28;20160;-78
2022/09/12 02:26:30;;;;;;;18.93;12.53;;;11.20;99.90;;;;;;5055338;28;20168;-78
2022/09/12 02:28:56;;;;;;;19.80;13.47;;;11.20;99.90;;;;;;5056503;28;20179;-77
2022/09/12 02:31:32;;;;;;;23.40;12.60;;;11.20;99.90;;;;;;5059110;28;20562;-77
2022/09/12 02:34:13;;;;;;;23.60;13.07;;;11.20;99.90;;;;;;5058683;28;20270;-76
2022/09/12 02:36:59;;;;;;;17.80;12.43;;;11.10;99.90;;;;;;5055187;28;20184;-76
2022/09/12 02:39:25;;;;;;;20.30;12.33;;;11.10;99.90;;;;;;5054942;28;20151;-77
2022/09/12 02:41:53;;;;;;;20.97;12.57;;;11.00;99.90;;;;;;5054318;28;20223;-77
2022/09/12 02:44:19;;;;;;;22.80;12.93;;;11.00;99.90;;;;;;5054811;28;20164;-77
2022/09/12 02:46:52;;;;;;;20.07;13.13;;;11.00;99.90;;;;;;5054757;28;20254;-78
2022/09/12 02:49:18;;;;;;;21.87;13.50;;;11.00;99.90;;;;;;5053730;28;20164;-77
2022/09/12 02:51:46;;;;;;;24.47;12.80;;;10.90;99.90;;;;;;5052373;28;20179;-76
2022/09/12 02:54:13;;;;;;;19.50;12.67;;;11.00;99.90;;;;;;5054464;28;20664;-77
2022/09/12 02:56:42;;;;;;;23.43;13.27;;;11.00;99.90;;;;;;5054621;28;20749;-77
2022/09/12 02:59:10;;;;;;;19.53;11.87;;;10.90;99.90;;;;;;5054583;28;20578;-77
2022/09/12 03:01:48;;;;;;;22.63;11.53;;;10.90;99.90;;;;;;5052513;28;20541;-77
2022/09/12 03:04:39;;;;;;;18.27;12.10;;;10.90;99.90;;;;;;5053270;28;20199;-78
2022/09/12 03:07:13;;;;;;;20.43;12.43;;;10.90;99.90;;;;;;5054543;28;20156;-77
2022/09/12 03:10:00;;;;;;;21.50;12.50;;;10.90;99.90;;;;;;5054378;28;20183;-76
2022/09/12 03:12:34;;;;;;;18.73;12.20;;;10.90;99.90;;;;;;5053174;28;20277;-77
2022/09/12 03:15:14;;;;;;;20.77;11.93;;;10.90;99.90;;;;;;5052577;28;20175;-78
2022/09/12 03:18:00;;;;;;;20.70;11.33;;;10.90;99.90;;;;;;5054531;28;20156;-76
2022/09/12 03:20:39;;;;;;;18.80;11.63;;;10.90;99.90;;;;;;5053291;28;20673;-78
2022/09/12 03:23:17;;;;;;;19.60;12.07;;;10.90;99.90;;;;;;5054240;28;20172;-78
2022/09/12 03:25:50;;;;;;;19.73;10.83;;;10.80;99.90;;;;;;5059941;28;20160;-77
2022/09/12 03:28:17;;;;;;;16.50;11.90;;;10.80;99.90;;;;;;5061241;28;20583;-77
2022/09/12 03:30:46;;;;;;;24.80;11.63;;;10.80;99.90;;;;;;5054538;28;20203;-77
2022/09/12 03:33:14;;;;;;;25.63;11.73;;;10.80;99.90;;;;;;5053040;28;20179;-78
2022/09/12 03:35:40;;;;;;;16.40;11.03;;;10.80;99.90;;;;;;5053749;28;20234;-76
2022/09/12 03:38:06;;;;;;;24.77;12.93;;;10.80;99.90;;;;;;5053759;28;20199;-78
2022/09/12 03:40:33;;;;;;;21.67;12.37;;;10.70;99.90;;;;;;5052080;28;20210;-78
2022/09/12 03:42:58;;;;;;;18.23;11.13;;;10.70;99.90;;;;;;5052758;28;20175;-77
2022/09/12 03:45:24;;;;;;;18.47;12.03;;;10.70;99.90;;;;;;5053812;28;20183;-77
2022/09/12 03:47:49;;;;;;;16.60;11.43;;;10.70;99.90;;;;;;5052455;28;20228;-77
2022/09/12 03:50:15;;;;;;;18.60;11.50;;;10.70;99.90;;;;;;5052388;28;20750;-77
2022/09/12 03:52:40;;;;;;;17.93;11.67;;;10.70;99.90;;;;;;5052223;28;20289;-77
2022/09/12 03:55:06;;;;;;;16.80;10.03;;;10.70;99.90;;;;;;5053497;28;20248;-77
2022/09/12 03:57:32;;;;;;;21.53;11.07;;;10.60;99.90;;;;;;5051168;28;20199;-77
2022/09/12 03:59:57;;;;;;;17.47;11.20;;;10.60;99.90;;;;;;5053057;28;20562;-78
2022/09/12 04:02:23;;;;;;;19.03;11.93;;;10.60;99.90;;;;;;5059864;28;20167;-77
2022/09/12 04:04:49;;;;;;;18.97;12.57;;;10.50;99.90;;;;;;5058843;28;20173;-77
2022/09/12 04:07:15;;;;;;;18.37;11.67;;;10.60;99.90;;;;;;5060594;28;20540;-77
2022/09/12 04:09:40;;;;;;;22.07;10.90;;;10.60;99.90;;;;;;5059108;28;20594;-77
2022/09/12 04:12:06;;;;;;;20.93;11.23;;;10.50;99.90;;;;;;5058737;28;20228;-77
2022/09/12 04:14:32;;;;;;;20.53;11.57;;;10.60;99.90;;;;;;5059200;28;20270;-78
2022/09/12 04:16:57;;;;;;;15.47;10.33;;;10.50;99.90;;;;;;5060511;28;20190;-77
2022/09/12 04:19:24;;;;;;;17.60;10.40;;;10.50;99.90;;;;;;5058742;28;20172;-78
2022/09/12 04:21:50;;;;;;;16.33;11.13;;;10.60;99.90;;;;;;5059326;28;20653;-77
2022/09/12 04:24:16;;;;;;;17.37;10.27;;;10.50;99.90;;;;;;5060090;28;20246;-78
2022/09/12 04:26:41;;;;;;;18.43;10.77;;;10.50;99.90;;;;;;5060188;28;20175;-78
2022/09/12 04:29:09;;;;;;;17.10;10.27;;;10.50;99.90;;;;;;5059816;28;20254;-77
2022/09/12 04:31:35;;;;;;;17.57;10.73;;;10.50;99.90;;;;;;5058699;28;20203;-78
2022/09/12 04:34:00;;;;;;;16.57;10.20;;;10.50;99.90;;;;;;5059388;28;20206;-78
2022/09/12 04:36:28;;;;;;;14.87;9.57;;;10.40;99.90;;;;;;5060452;28;20237;-77
2022/09/12 04:38:54;;;;;;;18.13;10.83;;;10.40;99.90;;;;;;5058896;28;20266;-77
2022/09/12 04:41:25;;;;;;;16.13;9.33;;;10.40;99.90;;;;;;5058031;28;20257;-78
2022/09/12 04:43:52;;;;;;;17.50;9.90;;;10.40;99.90;;;;;;5059492;28;20179;-78
2022/09/12 04:46:21;;;;;;;16.27;9.97;;;10.40;99.90;;;;;;5060503;28;20174;-78
2022/09/12 04:48:47;;;;;;;16.37;9.17;;;10.40;99.90;;;;;;5060374;28;20252;-77
2022/09/12 04:51:14;;;;;;;14.20;9.57;;;10.40;99.90;;;;;;5064282;28;20195;-77
2022/09/12 04:53:41;;;;;;;13.40;9.90;;;10.40;99.90;;;;;;5065546;28;20171;-78
2022/09/12 04:56:10;;;;;;;17.30;8.60;;;10.40;99.90;;;;;;5061823;28;20198;-78
2022/09/12 04:58:36;;;;;;;15.13;9.20;;;10.40;99.90;;;;;;5073748;28;20176;-77
2022/09/12 05:01:19;;;;;;;17.73;10.07;;;10.30;99.90;;;;;;5080298;28;20196;-76
2022/09/12 05:03:47;;;;;;;14.53;9.70;;;10.40;99.90;;;;;;5070264;28;20155;-78
2022/09/12 05:06:17;;;;;;;12.37;8.73;;;10.40;99.90;;;;;;5061838;28;20262;-79
2022/09/12 05:08:43;;;;;;;15.67;9.63;;;10.40;99.90;;;;;;5062236;28;20639;-78
2022/09/12 05:11:15;;;;;;;18.03;10.27;;;10.40;99.90;;;;;;5061411;28;20199;-78
2022/09/12 05:13:41;;;;;;;14.27;9.10;;;10.40;99.90;;;;;;5059427;28;20180;-78
2022/09/12 05:16:09;;;;;;;16.70;9.67;;;10.40;99.90;;;;;;5058053;28;20222;-79
2022/09/12 05:18:35;;;;;;;13.10;8.20;;;10.50;99.90;;;;;;5058953;28;20171;-78
2022/09/12 05:21:03;;;;;;;14.20;9.07;;;10.50;99.90;;;;;;5059378;28;20579;-78
2022/09/12 05:23:30;;;;;;;15.97;9.07;;;10.50;99.90;;;;;;5058898;28;20168;-79
2022/09/12 05:25:57;;;;;;;16.17;8.87;;;10.50;99.90;;;;;;5059274;28;20172;-78
2022/09/12 05:28:27;;;;;;;12.17;9.30;;;10.50;99.90;;;;;;5057825;28;20198;-78
2022/09/12 05:31:05;;;;;;;16.40;8.70;;;10.50;99.90;;;;;;5055068;28;20200;-77
2022/09/12 05:33:32;;;;;;;16.13;8.37;;;10.60;99.90;;;;;;5058224;28;20163;-78
2022/09/12 05:35:58;;;;;;;18.93;9.07;;;10.60;99.90;;;;;;5058454;28;20707;-78
2022/09/12 05:38:24;;;;;;;17.53;8.10;;;10.60;99.90;;;;;;5060353;28;20168;-78
2022/09/12 05:40:50;;;;;;;12.37;8.17;;;10.70;99.90;;;;;;5061179;28;20693;-78
2022/09/12 05:43:16;;;;;;;20.47;8.40;;;10.70;99.90;;;;;;5060215;28;20708;-78
2022/09/12 05:45:42;;;;;;;11.87;8.23;;;10.70;99.90;;;;;;5059180;28;20176;-77
2022/09/12 05:48:07;;;;;;;11.03;7.67;;;10.70;99.90;;;;;;5059383;28;20164;-77
2022/09/12 05:50:33;;;;;;;14.93;8.67;;;10.80;99.90;;;;;;5060782;28;20656;-77
2022/09/12 05:52:58;;;;;;;13.70;8.50;;;10.90;99.90;;;;;;5060313;28;20167;-78
2022/09/12 05:55:24;;;;;;;15.60;8.50;;;10.90;99.90;;;;;;5053315;28;20184;-78
2022/09/12 05:57:50;;;;;;;15.13;8.13;;;11.00;99.90;;;;;;5040812;28;20165;-77
2022/09/12 06:00:17;;;;;;;15.60;8.80;;;11.00;99.90;;;;;;5051061;28;20211;-79
2022/09/12 06:02:43;;;;;;;14.77;8.87;;;11.10;99.90;;;;;;5059513;28;20175;-77
2022/09/12 06:05:09;;;;;;;9.83;7.30;;;11.10;99.90;;;;;;5061002;28;20175;-78
2022/09/12 06:07:35;;;;;;;14.30;8.03;;;11.20;99.90;;;;;;5061980;28;20164;-78
2022/09/12 06:10:02;;;;;;;11.57;7.47;;;11.20;99.90;;;;;;5060971;28;20256;-78
2022/09/12 06:12:28;;;;;;;14.87;9.37;;;11.30;99.90;;;;;;5062017;28;20164;-78
2022/09/12 06:14:54;;;;;;;13.00;8.60;;;11.30;99.90;;;;;;5061440;28;20183;-78
2022/09/12 06:17:21;;;;;;;11.10;7.93;;;11.40;99.90;;;;;;5062515;28;20204;-78
2022/09/12 06:19:46;;;;;;;12.77;7.87;;;11.40;99.90;;;;;;5062571;28;20693;-79
2022/09/12 06:22:12;;;;;;;12.40;8.30;;;11.40;99.90;;;;;;5064329;28;20172;-78
2022/09/12 06:24:38;;;;;;;11.63;8.23;;;11.50;99.90;;;;;;5064695;28;20270;-78
2022/09/12 06:27:04;;;;;;;15.27;7.90;;;11.60;99.90;;;;;;5054304;28;20649;-79
2022/09/12 06:29:31;;;;;;;13.10;8.60;;;11.70;99.90;;;;;;5044622;28;20247;-79
2022/09/12 06:31:57;;;;;;;12.17;8.47;;;11.70;99.90;;;;;;5045262;28;20164;-78
2022/09/12 06:34:23;;;;;;;15.13;8.23;;;11.80;99.90;;;;;;5060593;28;20222;-78
2022/09/12 06:36:49;;;;;;;18.03;8.73;;;11.90;99.90;;;;;;5051847;28;20211;-79
2022/09/12 06:39:18;;;;;;;11.97;8.43;;;12.00;99.90;;;;;;5063996;28;20183;-79
2022/09/12 06:41:44;;;;;;;11.43;8.13;;;12.00;99.90;;;;;;5067771;22;20188;-92
2022/09/12 06:44:13;;;;;;;16.23;9.03;;;12.10;99.90;;;;;;5078294;28;20203;-95
2022/09/12 06:46:39;;;;;;;15.87;10.33;;;12.20;99.90;;;;;;5078390;28;20160;-91
2022/09/12 06:49:05;;;;;;;19.93;11.87;;;12.30;99.90;;;;;;5078923;28;20190;-93
2022/09/12 06:51:30;;;;;;;17.00;11.20;;;12.40;99.90;;;;;;5076322;28;20179;-93
2022/09/12 06:53:57;;;;;;;18.93;11.57;;;12.60;99.90;;;;;;5077041;28;20187;-93
2022/09/12 06:56:25;;;;;;;22.50;11.17;;;13.00;99.90;;;;;;5086417;22;20227;-79
2022/09/12 06:58:51;;;;;;;19.20;10.90;;;12.80;99.90;;;;;;5069872;28;20645;-81
2022/09/12 07:01:21;;;;;;;16.17;10.20;;;12.90;99.90;;;;;;5069337;28;20229;-80
2022/09/12 07:03:49;;;;;;;17.90;11.80;;;13.00;99.90;;;;;;5066464;28;20229;-80
2022/09/12 07:06:17;;;;;;;20.00;11.80;;;13.20;99.90;;;;;;5065804;28;20190;-81
2022/09/12 07:08:42;;;;;;;17.80;11.47;;;13.30;99.90;;;;;;5073376;28;20179;-79
2022/09/12 07:11:17;;;;;;;17.57;12.47;;;13.30;99.90;;;;;;5072582;28;20175;-77
2022/09/12 07:13:44;;;;;;;24.30;12.03;;;13.40;99.90;;;;;;5095018;28;20198;-79
2022/09/12 07:16:11;;;;;;;21.60;13.33;;;13.60;99.90;;;;;;5067719;28;20230;-81
2022/09/12 07:18:37;;;;;;;22.07;12.67;;;13.70;99.90;;;;;;5067155;28;20182;-79
2022/09/12 07:21:09;;;;;;;23.23;12.90;;;13.80;99.90;;;;;;5067325;28;20179;-81
2022/09/12 07:23:34;;;;;;;21.03;12.47;;;13.90;99.90;;;;;;5066956;28;20195;-81
2022/09/12 07:26:00;;;;;;;21.27;12.57;;;14.00;99.90;;;;;;5065222;28;20539;-80
2022/09/12 07:28:29;;;;;;;16.83;11.80;;;14.10;99.90;;;;;;5071095;28;20549;-80
2022/09/12 07:30:55;;;;;;;19.97;11.53;;;14.20;99.90;;;;;;5064914;28;20180;-80
2022/09/12 07:33:27;;;;;;;24.73;13.30;;;14.20;99.90;;;;;;5065255;28;20583;-79
2022/09/12 07:35:53;;;;;;;22.93;13.17;;;14.40;99.90;;;;;;5067266;28;20568;-81
2022/09/12 07:38:20;;;;;;;18.17;13.00;;;14.50;99.90;;;;;;5071308;28;20185;-82
2022/09/12 07:40:45;;;;;;;24.53;13.37;;;14.60;99.90;;;;;;5071984;28;20176;-79
2022/09/12 07:43:11;;;;;;;21.43;12.93;;;14.70;99.90;;;;;;5072142;28;20600;-80
2022/09/12 07:45:40;;;;;;;20.73;12.87;;;14.80;99.90;;;;;;5066864;28;20179;-81
2022/09/12 07:48:05;;;;;;;23.70;13.67;;;14.90;99.90;;;;;;5065411;28;20180;-81
2022/09/12 07:50:32;;;;;;;22.47;12.67;;;15.00;99.90;;;;;;5066418;28;20616;-81
2022/09/12 07:52:58;;;;;;;19.93;12.23;;;15.00;99.90;;;;;;5066008;28;20190;-81
2022/09/12 07:55:23;;;;;;;20.87;12.23;;;15.20;99.90;;;;;;5065848;28;20189;-81
2022/09/12 07:57:49;;;;;;;21.03;12.07;;;15.20;99.90;;;;;;5067893;28;20202;-79
2022/09/12 08:00:16;;;;;;;19.13;11.87;;;15.30;99.90;;;;;;5070269;28;20172;-80
2022/09/12 08:02:41;;;;;;;16.77;11.27;;;15.30;99.90;;;;;;5067764;28;20199;-82
2022/09/12 08:05:07;;;;;;;17.00;11.80;;;15.40;99.90;;;;;;5067958;28;20174;-80
2022/09/12 08:07:33;;;;;;;14.63;11.03;;;15.50;99.90;;;;;;5068244;28;20194;-81
2022/09/12 08:09:59;;;;;;;16.77;10.90;;;15.50;99.90;;;;;;5071325;28;20337;-82
2022/09/12 08:12:26;;;;;;;19.90;10.67;;;15.60;99.90;;;;;;5068175;28;20221;-82
2022/09/12 08:14:52;;;;;;;13.83;10.17;;;15.60;99.90;;;;;;5067259;28;20262;-81
2022/09/12 08:17:17;;;;;;;15.57;10.37;;;15.70;99.90;;;;;;5070301;28;20230;-81
2022/09/12 08:19:43;;;;;;;14.17;10.23;;;15.70;99.90;;;;;;5072560;28;20259;-80
2022/09/12 08:22:10;;;;;;;12.53;9.63;;;15.80;99.90;;;;;;5073752;28;20186;-82
2022/09/12 08:24:35;;;;;;;15.53;9.77;;;15.80;99.90;;;;;;5070519;28;20182;-81
2022/09/12 08:27:01;;;;;;;14.83;9.50;;;15.90;99.90;;;;;;5074007;28;20226;-81
2022/09/12 08:29:27;;;;;;;13.93;9.47;;;15.90;99.90;;;;;;5093777;28;20214;-80
2022/09/12 08:31:52;;;;;;;14.47;10.03;;;16.00;99.90;;;;;;5067692;28;20688;-80
2022/09/12 08:34:18;;;;;;;12.47;9.17;;;16.00;99.90;;;;;;5065722;28;20187;-82
2022/09/12 08:36:43;;;;;;;12.93;9.90;;;16.10;99.90;;;;;;5072593;28;20228;-82
2022/09/12 08:39:11;;;;;;;15.93;9.70;;;16.20;99.90;;;;;;5073481;28;20176;-80
2022/09/12 08:41:45;;;;;;;12.67;9.20;;;16.40;99.90;;;;;;5077604;28;20206;-80
2022/09/12 08:44:42;;;;;;;12.30;8.90;;;16.50;99.90;;;;;;5078626;28;20220;-79
2022/09/12 08:47:23;;;;;;;11.60;8.70;;;16.60;99.90;;;;;;5079823;28;20190;-79
2022/09/12 08:50:08;;;;;;;11.47;8.43;;;16.70;99.90;;;;;;5086697;28;20178;-80
2022/09/12 08:52:50;;;;;;;11.60;7.83;;;16.80;99.90;;;;;;5082830;28;20206;-82
2022/09/12 08:55:23;;;;;;;10.03;7.70;;;16.80;99.90;;;;;;5071641;28;20188;-81
2022/09/12 08:57:49;;;;;;;9.83;8.17;;;16.80;99.90;;;;;;5071148;28;20190;-81
2022/09/12 09:00:16;;;;;;;11.67;8.00;;;16.90;99.90;;;;;;5074073;28;20179;-81
2022/09/12 09:03:01;;;;;;;11.50;7.23;;;16.90;99.90;;;;;;5074166;28;20221;-81
2022/09/12 09:05:40;;;;;;;17.03;8.03;;;17.00;99.90;;;;;;5067146;28;20258;-81
2022/09/12 09:08:20;;;;;;;10.17;7.80;;;17.00;99.90;;;;;;5071835;28;20163;-81
2022/09/12 09:10:52;;;;;;;10.87;7.90;;;17.10;99.90;;;;;;5072345;28;20559;-80
2022/09/12 09:16:39;;;;;;;10.80;7.37;;;17.30;99.90;;;;;;5068599;28;20217;-82
2022/09/12 09:19:31;;;;;;;11.83;7.90;;;17.40;99.90;;;;;;5068109;28;20180;-81
2022/09/12 09:22:09;;;;;;;12.33;7.20;;;17.50;99.90;;;;;;5068339;28;20234;-82
2022/09/12 09:24:44;;;;;;;9.37;6.90;;;17.60;99.90;;;;;;5064796;28;20176;-80
2022/09/12 09:27:21;;;;;;;15.03;6.63;;;17.70;99.90;;;;;;5064771;28;20170;-81
2022/09/12 09:29:51;;;;;;;12.33;7.23;;;17.80;99.90;;;;;;5066551;28;20182;-81
2022/09/12 09:32:22;;;;;;;12.37;6.90;;;17.90;99.90;;;;;;5067969;28;20282;-81
2022/09/12 09:34:48;;;;;;;8.67;6.73;;;18.00;99.90;;;;;;5067175;28;20247;-82
2022/09/12 09:37:38;;;;;;;9.03;6.87;;;18.10;99.90;;;;;;5067702;28;20203;-81
2022/09/12 09:40:23;;;;;;;9.37;6.40;;;18.10;99.90;;;;;;5068106;28;20208;-81
2022/09/12 09:42:54;;;;;;;9.90;6.43;;;18.20;99.90;;;;;;5066733;28;20194;-82
2022/09/12 09:45:23;;;;;;;10.30;6.47;;;18.30;99.90;;;;;;5071278;28;20202;-82
2022/09/12 09:47:56;;;;;;;9.13;6.17;;;18.40;99.90;;;;;;5067568;28;20180;-80
2022/09/12 09:50:22;;;;;;;8.40;6.10;;;18.60;99.90;;;;;;5066459;28;20175;-80
2022/09/12 09:52:50;;;;;;;6.60;5.83;;;18.60;99.90;;;;;;5064264;28;20689;-80
2022/09/12 09:55:20;;;;;;;8.77;6.40;;;18.80;99.90;;;;;;5063539;28;20545;-80
2022/09/12 09:57:46;;;;;;;6.83;5.17;;;18.80;99.90;;;;;;5060757;28;20267;-81
2022/09/12 10:00:38;;;;;;;8.20;5.23;;;18.90;99.90;;;;;;5066079;28;20175;-82
2022/09/12 10:03:13;;;;;;;7.47;5.03;;;19.10;99.90;;;;;;5058846;28;20230;-82
2022/09/12 10:05:47;;;;;;;7.13;5.00;;;19.10;99.90;;;;;;5064099;28;20257;-82
2022/09/12 10:08:26;;;;;;;6.47;4.90;;;19.20;99.90;;;;;;5068996;28;20705;-82
2022/09/12 10:11:00;;;;;;;4.83;4.20;;;19.20;99.90;;;;;;5064097;28;20179;-82
2022/09/12 10:13:52;;;;;;;6.80;4.70;;;19.30;99.90;;;;;;5065260;28;20668;-81
2022/09/12 10:16:24;;;;;;;8.43;4.87;;;19.40;99.90;;;;;;5070468;28;20195;-81
2022/09/12 10:18:51;;;;;;;5.67;4.23;;;19.50;99.90;;;;;;5070227;28;20622;-80
2022/09/12 10:21:20;;;;;;;4.43;3.83;;;19.60;99.90;;;;;;5065128;28;20202;-82
2022/09/12 10:23:49;;;;;;;5.57;3.63;;;19.60;99.90;;;;;;5065139;28;20213;-81
2022/09/12 10:26:18;;;;;;;10.03;4.47;;;19.70;99.90;;;;;;5062448;28;20187;-81
2022/09/12 10:28:49;;;;;;;6.30;4.87;;;19.80;87.10;;;;;;5068207;28;20657;-82
2022/09/12 10:31:28;;;;;;;8.63;4.43;;;19.90;99.90;;;;;;5065562;28;20180;-81
2022/09/12 10:33:57;;;;;;;5.40;3.90;;;19.90;99.90;;;;;;5067591;28;20522;-80
2022/09/12 10:36:23;;;;;;;5.50;4.07;;;20.00;1.00;;;;;;5066003;28;20203;-82
2022/09/12 10:39:01;;;;;;;6.07;4.30;;;20.10;1.00;;;;;;5064891;28;20209;-82
2022/09/12 10:41:37;;;;;;;7.20;3.53;;;20.20;1.00;;;;;;5065886;28;20531;-81
2022/09/12 10:44:24;;;;;;;5.90;3.90;;;20.30;1.00;;;;;;5062464;28;20258;-82
2022/09/12 10:46:50;;;;;;;5.33;3.70;;;20.30;1.00;;;;;;5066761;28;20186;-83
2022/09/12 10:49:21;;;;;;;3.50;3.20;;;20.40;1.00;;;;;;5070341;28;20182;-81
2022/09/12 10:51:47;;;;;;;5.77;3.20;;;20.50;99.90;;;;;;5068227;28;20171;-81
2022/09/12 10:54:17;;;;;;;7.53;3.30;;;20.40;1.00;;;;;;5063870;28;20254;-82
2022/09/12 10:57:22;;;;;;;3.67;2.80;;;20.60;1.00;;;;;;5066483;28;20213;-81
2022/09/12 11:00:09;;;;;;;3.60;2.80;;;20.80;1.00;;;;;;5063524;28;20167;-81
2022/09/12 11:02:50;;;;;;;3.47;3.07;;;20.90;99.90;;;;;;5077181;28;20198;-81
2022/09/12 11:05:44;;;;;;;3.33;2.90;;;21.00;1.00;;;;;;5074995;28;20166;-81
2022/09/12 11:08:40;;;;;;;4.27;3.00;;;21.00;1.00;;;;;;5074657;28;20177;-81
2022/09/12 11:11:42;;;;;;;3.10;2.57;;;21.00;99.90;;;;;;5075260;28;20193;-81
2022/09/12 11:14:32;;;;;;;2.60;2.40;;;21.10;1.00;;;;;;5062386;28;20566;-81
2022/09/12 11:17:19;;;;;;;2.60;2.40;;;21.20;1.00;;;;;;5070738;28;20191;-83
2022/09/12 11:20:12;;;;;;;4.37;2.50;;;21.30;1.00;;;;;;5068355;28;20176;-81
2022/09/12 11:23:05;;;;;;;3.70;2.50;;;21.40;43.80;;;;;;5063418;28;20248;-82
2022/09/12 11:25:44;;;;;;;3.87;2.40;;;21.40;99.90;;;;;;5070607;28;20688;-82
2022/09/12 11:28:19;;;;;;;2.70;2.20;;;21.50;1.00;;;;;;5064504;28;20625;-81
2022/09/12 11:31:05;;;;;;;2.87;2.10;;;21.50;99.90;;;;;;5067191;28;20166;-80
2022/09/12 11:33:43;;;;;;;2.70;2.30;;;21.60;1.00;;;;;;5069445;28;20203;-82
2022/09/12 11:36:34;;;;;;;3.17;2.57;;;21.80;1.00;;;;;;5066058;28;20199;-82
2022/09/12 11:39:02;;;;;;;2.30;2.10;;;21.70;57.70;;;;;;5070624;28;20185;-81
2022/09/12 11:41:33;;;;;;;3.27;2.20;;;21.80;99.90;;;;;;5069839;28;20185;-82
2022/09/12 11:44:21;;;;;;;3.40;2.40;;;21.80;99.90;;;;;;5066078;28;20248;-80
2022/09/12 11:46:47;;;;;;;1.83;1.73;;;22.10;1.00;;;;;;5072318;28;20176;-82
2022/09/12 11:49:25;;;;;;;2.27;1.83;;;22.20;38.60;;;;;;5068620;28;20189;-81
2022/09/12 11:52:06;;;;;;;2.87;2.20;;;22.20;1.00;;;;;;5080174;28;20267;-81
2022/09/12 11:54:43;;;;;;;2.37;1.90;;;22.30;1.00;;;;;;5064659;28;20229;-82
2022/09/12 11:57:30;;;;;;;2.20;1.83;;;22.30;12.60;;;;;;5063910;28;20203;-81
2022/09/12 12:00:01;;;;;;;1.80;1.70;;;22.30;1.00;;;;;;5064360;28;20621;-80
2022/09/12 12:02:29;;;;;;;2.60;1.90;;;22.30;1.00;;;;;;5066427;28;20207;-80
2022/09/12 12:05:21;;;;;;;1.83;1.43;;;22.50;77.30;;;;;;5065488;28;21589;-82
2022/09/12 12:07:57;;;;;;;2.03;1.80;;;22.40;1.00;;;;;;5065561;28;20544;-82
2022/09/12 12:10:31;;;;;;;2.47;1.50;;;22.50;1.00;;;;;;5065023;28;20667;-82
2022/09/12 12:12:59;;;;;;;2.30;2.07;;;22.50;52.20;;;;;;5068620;28;20190;-83
2022/09/12 12:15:25;;;;;;;2.13;1.40;;;22.50;99.90;;;;;;5061908;28;20641;-82
2022/09/12 12:18:05;;;;;;;3.70;1.83;;;22.60;1.00;;;;;;5062503;28;20188;-82
2022/09/12 12:20:31;;;;;;;5.67;2.57;;;22.60;99.90;;;;;;5064118;28;20175;-82
2022/09/12 12:22:57;;;;;;;2.43;1.80;;;22.70;1.00;;;;;;5068374;28;20195;-83
2022/09/12 12:25:37;;;;;;;1.83;1.53;;;22.70;1.00;;;;;;5063120;28;20270;-82
2022/09/12 12:28:05;;;;;;;5.53;1.60;;;22.70;1.00;;;;;;5067227;28;20244;-82
2022/09/12 12:30:30;;;;;;;1.67;1.50;;;22.80;1.00;;;;;;5071516;28;20176;-82
2022/09/12 12:33:19;;;;;;;1.57;1.47;;;22.80;1.00;;;;;;5063902;28;20190;-81
2022/09/12 12:36:03;;;;;;;2.40;1.30;;;22.90;1.00;;;;;;5043509;28;20558;-83
2022/09/12 12:38:37;;;;;;;1.80;1.40;;;22.90;99.90;;;;;;5071608;28;20164;-83
2022/09/12 12:41:18;;;;;;;2.43;1.70;;;23.00;99.90;;;;;;5077702;28;20267;-81
2022/09/12 12:43:49;;;;;;;3.30;1.50;;;23.00;1.00;;;;;;5105549;22;20287;-80
2022/09/12 12:46:19;;;;;;;1.63;1.50;;;23.00;99.90;;;;;;5101283;28;20253;-80
2022/09/12 12:48:52;;;;;;;1.67;1.57;;;23.10;99.90;;;;;;5101549;28;20231;-80
2022/09/12 12:51:33;;;;;;;1.93;1.73;;;23.10;1.00;;;;;;5101710;28;20177;-80
2022/09/12 12:54:00;;;;;;;2.10;1.60;;;23.20;1.00;;;;;;5098131;28;20589;-80
2022/09/12 12:56:37;;;;;;;2.20;1.67;;;23.20;99.90;;;;;;5100229;28;20229;-80
2022/09/12 12:59:20;;;;;;;2.27;1.83;;;23.20;1.00;;;;;;5102029;28;20246;-80
2022/09/12 13:01:50;;;;;;;1.67;1.57;;;23.30;99.90;;;;;;5100874;28;20154;-79
2022/09/12 13:04:20;;;;;;;2.00;1.60;;;23.30;1.00;;;;;;5101694;28;20525;-79